createdAt,value
2019-02-02T05:00:35.163Z,96.13
2019-02-02T05:03:04.148Z,89.93
2019-02-02T05:05:33.560Z,88.03
2019-02-02T05:08:02.349Z,96.90
2019-02-02T05:10:31.846Z,91.83
2019-02-02T05:13:00.644Z,96.87
2019-02-02T05:15:29.824Z,97.97
2019-02-02T05:17:58.923Z,89.83
2019-02-02T05:20:27.692Z,86.80
2019-02-02T05:22:56.527Z,89.73
2019-02-02T05:25:25.492Z,89.83
2019-02-02T05:27:54.586Z,93.20
2019-02-02T05:30:28.921Z,85.77
2019-02-02T05:32:58.332Z,88.07
2019-02-02T05:35:27.381Z,91.50
2019-02-02T05:37:57.590Z,89.73
2019-02-02T05:40:26.733Z,90.27
2019-02-02T05:42:55.852Z,91.47
2019-02-02T05:45:25.006Z,87.47
2019-02-02T05:47:54.204Z,95.17
2019-02-02T05:50:23.834Z,92.67
2019-02-02T05:52:53.107Z,89.53
2019-02-02T05:55:41.200Z,94.63
2019-02-02T05:58:12.245Z,90.83
2019-02-02T06:00:52.711Z,98.73
2019-02-02T06:03:21.602Z,94.77
2019-02-02T06:05:50.840Z,90.10
2019-02-02T06:08:19.703Z,92.97
2019-02-02T06:10:48.852Z,98.50
2019-02-02T06:13:17.792Z,99.03
2019-02-02T06:15:46.577Z,96.17
2019-02-02T06:18:15.456Z,103.23
2019-02-02T06:20:44.337Z,96.90
2019-02-02T06:23:13.196Z,92.20
2019-02-02T06:25:42.016Z,96.53
2019-02-02T06:28:11.736Z,93.83
2019-02-02T06:30:40.621Z,89.10
2019-02-02T06:33:09.752Z,93.73
2019-02-02T06:35:38.852Z,95.10
2019-02-02T06:38:08.077Z,101.30
2019-02-02T06:40:37.452Z,92.30
2019-02-02T06:43:06.311Z,93.47
2019-02-02T06:45:36.533Z,95.60
2019-02-02T06:48:05.708Z,93.00
2019-02-02T06:50:35.261Z,93.70
2019-02-02T06:53:04.680Z,89.43
2019-02-02T06:55:33.731Z,92.87
2019-02-02T06:58:02.857Z,88.30
2019-02-02T07:00:31.875Z,101.37
2019-02-02T07:03:01.152Z,94.63
2019-02-02T07:05:30.299Z,100.93
2019-02-02T07:07:59.440Z,101.03
2019-02-02T07:10:29.004Z,96.93
2019-02-02T07:12:57.860Z,89.00
2019-02-02T07:15:28.754Z,93.77
2019-02-02T07:17:58.275Z,96.40
2019-02-02T07:20:27.603Z,97.63
2019-02-02T07:22:57.176Z,90.30
2019-02-02T07:25:26.373Z,89.73
2019-02-02T07:27:55.876Z,95.40
2019-02-02T07:30:29.638Z,91.87
2019-02-02T07:32:56.548Z,89.50
2019-02-02T07:35:25.552Z,94.60
2019-02-02T07:37:54.804Z,96.90
2019-02-02T07:40:24.125Z,95.90
2019-02-02T07:42:53.316Z,100.60
2019-02-02T07:45:27.520Z,98.77
2019-02-02T07:47:56.745Z,123.47
2019-02-02T07:50:25.589Z,96.43
2019-02-02T07:52:54.483Z,93.67
2019-02-02T07:55:23.595Z,99.33
2019-02-02T07:57:52.452Z,88.87
2019-02-02T08:00:40.491Z,101.47
2019-02-02T08:03:00.508Z,95.87
2019-02-02T08:05:29.312Z,93.67
2019-02-02T08:07:58.253Z,102.47
2019-02-02T08:10:27.903Z,92.83
2019-02-02T08:12:57.404Z,97.77
2019-02-02T08:15:28.468Z,97.23
2019-02-02T08:17:57.848Z,101.83
2019-02-02T08:20:27.141Z,91.77
2019-02-02T08:22:56.723Z,95.70
2019-02-02T08:25:26.152Z,93.80
2019-02-02T08:27:55.552Z,111.87
2019-02-02T08:30:26.524Z,91.80
2019-02-02T08:32:55.778Z,96.53
2019-02-02T08:35:25.129Z,98.57
2019-02-02T08:37:54.519Z,102.67
2019-02-02T08:40:23.993Z,96.93
2019-02-02T08:42:52.999Z,96.03
2019-02-02T08:45:22.487Z,89.37
2019-02-02T08:47:51.322Z,102.00
2019-02-02T08:50:23.196Z,94.07
2019-02-02T08:52:51.980Z,96.47
2019-02-02T08:55:20.943Z,89.17
2019-02-02T08:57:50.169Z,94.90
2019-02-02T09:00:20.293Z,98.27
2019-02-02T09:02:49.786Z,101.43
2019-02-02T09:05:19.863Z,99.10
2019-02-02T09:07:48.856Z,87.73
2019-02-02T09:10:19.739Z,94.70
2019-02-02T09:12:49.392Z,96.03
2019-02-02T09:15:18.505Z,93.60
2019-02-02T09:17:47.917Z,94.30
2019-02-02T09:20:17.004Z,91.43
2019-02-02T09:22:46.243Z,92.07
2019-02-02T09:25:16.235Z,93.00
2019-02-02T09:27:45.396Z,91.80
2019-02-02T09:30:17.232Z,98.97
2019-02-02T09:32:46.440Z,95.63
2019-02-02T09:35:15.785Z,98.10
2019-02-02T09:37:44.839Z,95.97
2019-02-02T09:40:15.459Z,94.37
2019-02-02T09:42:44.417Z,94.80
2019-02-02T09:45:15.232Z,95.33
2019-02-02T09:47:44.124Z,94.10
2019-02-02T09:50:15.283Z,93.27
2019-02-02T09:52:44.840Z,96.13
2019-02-02T09:55:15.412Z,93.97
2019-02-02T09:57:44.776Z,89.80
2019-02-02T10:00:20.415Z,103.17
2019-02-02T10:02:49.588Z,100.23
2019-02-02T10:05:19.269Z,103.30
2019-02-02T10:07:48.600Z,99.30
2019-02-02T10:10:19.844Z,103.30
2019-02-02T10:12:49.314Z,102.77
2019-02-02T10:15:19.224Z,98.20
2019-02-02T10:17:49.823Z,97.43
2019-02-02T10:20:20.903Z,104.90
2019-02-02T10:22:49.809Z,99.40
2019-02-02T10:25:21.598Z,104.00
2019-02-02T10:27:51.009Z,102.03
2019-02-02T10:30:25.345Z,104.23
2019-02-02T10:32:54.482Z,104.63
2019-02-02T10:35:23.339Z,107.50
2019-02-02T10:37:52.193Z,107.93
2019-02-02T10:40:21.068Z,107.83
2019-02-02T10:42:50.012Z,105.57
2019-02-02T10:45:19.054Z,106.33
2019-02-02T10:47:47.992Z,111.60
2019-02-02T10:50:18.016Z,108.03
2019-02-02T10:52:47.078Z,114.83
2019-02-02T10:55:16.577Z,111.90
2019-02-02T10:57:46.899Z,112.43
2019-02-02T11:00:18.492Z,112.50
2019-02-02T11:02:47.959Z,109.60
2019-02-02T11:05:17.035Z,126.03
2019-02-02T11:07:45.986Z,130.57
2019-02-02T11:10:18.644Z,116.23
2019-02-02T11:12:48.288Z,122.20
2019-02-02T11:15:17.814Z,144.83
2019-02-02T11:17:47.140Z,135.40
2019-02-02T11:20:20.962Z,131.73
2019-02-02T11:22:50.130Z,138.23
2019-02-02T11:25:19.088Z,123.23
2019-02-02T11:27:48.081Z,133.20
2019-02-02T11:30:17.565Z,127.40
2019-02-02T11:32:46.972Z,148.50
2019-02-02T11:35:16.135Z,133.00
2019-02-02T11:37:45.332Z,123.10
2019-02-02T11:40:19.572Z,146.60
2019-02-02T11:42:49.364Z,144.93
2019-02-02T11:45:18.524Z,137.37
2019-02-02T11:47:47.564Z,156.20
2019-02-02T11:50:16.867Z,162.37
2019-02-02T11:52:45.803Z,143.00
2019-02-02T11:55:17.585Z,141.87
2019-02-02T11:57:49.762Z,141.93
2019-02-02T12:00:25.741Z,138.70
2019-02-02T12:02:54.647Z,136.67
2019-02-02T12:05:23.996Z,142.43
2019-02-02T12:07:52.944Z,140.70
2019-02-02T12:10:23.521Z,128.23
2019-02-02T12:12:52.621Z,130.07
2019-02-02T12:15:21.586Z,144.90
2019-02-02T12:17:50.570Z,129.27
2019-02-02T12:20:19.672Z,134.03
2019-02-02T12:22:48.991Z,134.57
2019-02-02T12:25:17.977Z,132.30
2019-02-02T12:27:48.793Z,128.63
2019-02-02T12:30:19.927Z,133.33
2019-02-02T12:32:49.621Z,130.97
2019-02-02T12:35:21.050Z,124.63
2019-02-02T12:37:50.552Z,125.47
2019-02-02T12:40:20.056Z,134.30
2019-02-02T12:42:49.094Z,120.47
2019-02-02T12:45:26.940Z,112.20
2019-02-02T12:47:55.838Z,98.50
2019-02-02T12:50:25.597Z,90.73
2019-02-02T12:52:54.544Z,115.70
2019-02-02T12:55:25.952Z,117.90
2019-02-02T12:57:53.985Z,107.13
2019-02-02T13:00:23.022Z,108.80
2019-02-02T13:02:51.874Z,105.37
2019-02-02T13:05:22.172Z,104.07
2019-02-02T13:07:51.494Z,112.20
2019-02-02T13:10:24.693Z,97.37
2019-02-02T13:12:54.175Z,101.47
2019-02-02T13:15:23.074Z,115.67
2019-02-02T13:17:52.368Z,119.03
2019-02-02T13:20:21.318Z,106.43
2019-02-02T13:22:50.258Z,106.07
2019-02-02T13:25:20.656Z,151.67
2019-02-02T13:27:49.534Z,105.13
2019-02-02T13:30:37.603Z,114.20
2019-02-02T13:33:07.786Z,130.57
2019-02-02T13:35:39.156Z,141.20
2019-02-02T13:38:08.430Z,144.50
2019-02-02T13:40:37.562Z,131.03
2019-02-02T13:43:07.236Z,139.97
2019-02-02T13:45:36.649Z,131.83
2019-02-02T13:48:06.664Z,122.80
2019-02-02T13:50:35.628Z,123.20
2019-02-02T13:53:05.579Z,118.63
2019-02-02T13:55:34.868Z,115.90
2019-02-02T13:58:04.125Z,122.07
2019-02-02T14:00:33.339Z,116.10
2019-02-02T14:03:03.714Z,104.50
2019-02-02T14:05:34.355Z,102.83
2019-02-02T14:08:03.463Z,159.40
2019-02-02T14:10:34.072Z,207.77
2019-02-02T14:13:03.391Z,121.03
2019-02-02T14:15:32.633Z,121.93
2019-02-02T14:18:01.442Z,111.80
2019-02-02T14:20:30.997Z,111.33
2019-02-02T14:22:59.862Z,107.00
2019-02-02T14:25:28.810Z,103.13
2019-02-02T14:27:57.896Z,107.63
2019-02-02T14:30:27.253Z,113.10
2019-02-02T14:32:56.558Z,119.07
2019-02-02T14:35:27.957Z,104.20
2019-02-02T14:37:57.561Z,109.33
2019-02-02T14:40:26.394Z,106.70
2019-02-02T14:42:55.753Z,167.03
2019-02-02T14:45:27.020Z,126.63
2019-02-02T14:47:56.126Z,126.70
2019-02-02T14:50:25.915Z,114.77
2019-02-02T14:52:54.932Z,120.10
2019-02-02T14:55:25.988Z,113.17
2019-02-02T14:57:55.595Z,113.27
2019-02-02T15:00:26.531Z,135.23
2019-02-02T15:03:25.211Z,117.77
2019-02-02T15:05:45.869Z,139.27
2019-02-02T15:08:14.750Z,130.17
2019-02-02T15:10:43.651Z,128.03
2019-02-02T15:13:12.457Z,126.20
2019-02-02T15:15:41.853Z,129.50
2019-02-02T15:18:11.052Z,122.23
2019-02-02T15:20:40.443Z,129.13
2019-02-02T15:23:10.033Z,151.20
2019-02-02T15:25:39.103Z,125.73
2019-02-02T15:28:08.049Z,136.10
2019-02-02T15:30:37.027Z,138.23
2019-02-02T15:33:08.312Z,145.33
2019-02-02T15:35:37.490Z,139.67
2019-02-02T15:38:06.596Z,138.13
2019-02-02T15:40:38.824Z,147.70
2019-02-02T15:43:07.712Z,151.87
2019-02-02T15:45:37.632Z,133.67
2019-02-02T15:48:06.820Z,132.07
2019-02-02T15:50:35.920Z,140.43
2019-02-02T15:53:05.117Z,138.40
2019-02-02T15:55:34.075Z,144.60
2019-02-02T15:58:03.396Z,143.60
2019-02-02T16:00:34.287Z,140.83
2019-02-02T16:03:03.878Z,163.73
2019-02-02T16:05:33.669Z,135.67
2019-02-02T16:08:04.872Z,138.87
2019-02-02T16:10:34.187Z,132.23
2019-02-02T16:13:03.444Z,131.47
2019-02-02T16:15:34.404Z,128.17
2019-02-02T16:18:03.379Z,132.60
2019-02-02T16:20:43.796Z,129.20
2019-02-02T16:23:13.065Z,125.27
2019-02-02T16:25:42.602Z,138.10
2019-02-02T16:28:11.958Z,137.83
2019-02-02T16:30:41.641Z,135.97
2019-02-02T16:33:30.771Z,142.37
2019-02-02T16:36:00.284Z,143.00
2019-02-02T16:38:29.265Z,132.20
2019-02-02T16:40:58.165Z,114.30
2019-02-02T16:43:27.097Z,167.73
2019-02-02T16:45:56.050Z,139.30
2019-02-02T16:48:25.427Z,136.30
2019-02-02T16:50:56.830Z,126.67
2019-02-02T16:53:25.701Z,131.10
2019-02-02T16:55:54.575Z,129.20
2019-02-02T16:58:23.685Z,128.53
2019-02-02T17:00:52.787Z,112.83
2019-02-02T17:03:22.008Z,109.80
2019-02-02T17:05:51.183Z,104.33
2019-02-02T17:08:20.076Z,175.20
2019-02-02T17:10:49.131Z,109.70
2019-02-02T17:13:17.900Z,130.70
2019-02-02T17:15:47.356Z,114.63
2019-02-02T17:18:16.757Z,114.23
2019-02-02T17:20:46.225Z,123.73
2019-02-02T17:23:15.427Z,100.80
2019-02-02T17:25:44.554Z,111.20
2019-02-02T17:28:13.750Z,118.00
2019-02-02T17:30:42.616Z,119.47
2019-02-02T17:33:14.251Z,136.27
2019-02-02T17:35:43.891Z,133.43
2019-02-02T17:38:13.145Z,142.40
2019-02-02T17:40:42.002Z,122.30
2019-02-02T17:43:10.948Z,120.43
2019-02-02T17:45:40.040Z,122.30
2019-02-02T17:48:09.269Z,129.23
2019-02-02T17:50:38.552Z,123.17
2019-02-02T17:53:07.966Z,132.67
2019-02-02T17:55:37.316Z,108.17
2019-02-02T17:58:06.308Z,104.77
2019-02-02T18:00:46.452Z,95.77
2019-02-02T18:03:15.355Z,108.90
2019-02-02T18:05:44.171Z,110.27
2019-02-02T18:08:13.672Z,99.37
2019-02-02T18:10:43.397Z,108.10
2019-02-02T18:13:12.571Z,113.87
2019-02-02T18:15:41.470Z,120.60
2019-02-02T18:18:10.621Z,116.27
2019-02-02T18:20:39.856Z,119.43
2019-02-02T18:23:09.057Z,102.57
2019-02-02T18:25:38.149Z,109.00
2019-02-02T18:28:06.925Z,110.60
2019-02-02T18:30:35.798Z,113.40
2019-02-02T18:33:04.681Z,116.67
2019-02-02T18:35:33.494Z,116.63
2019-02-02T18:38:02.363Z,115.40
2019-02-02T18:40:31.518Z,107.17
2019-02-02T18:43:00.684Z,105.53
2019-02-02T18:45:29.953Z,111.90
2019-02-02T18:47:58.800Z,111.33
2019-02-02T18:50:28.016Z,107.73
2019-02-02T18:52:57.120Z,111.50
2019-02-02T18:55:32.099Z,111.37
2019-02-02T18:58:00.959Z,109.67
2019-02-02T19:00:29.919Z,107.97
2019-02-02T19:02:59.003Z,111.30
2019-02-02T19:05:29.265Z,130.70
2019-02-02T19:07:58.596Z,124.80
2019-02-02T19:10:30.140Z,122.37
2019-02-02T19:12:59.323Z,117.93
2019-02-02T19:15:28.117Z,111.50
2019-02-02T19:17:57.333Z,122.90
2019-02-02T19:20:26.180Z,121.40
2019-02-02T19:22:57.196Z,115.03
2019-02-02T19:25:26.436Z,121.33
2019-02-02T19:27:55.966Z,114.63
2019-02-02T19:30:27.327Z,118.20
2019-02-02T19:32:56.604Z,113.93
2019-02-02T19:35:25.662Z,123.73
2019-02-02T19:37:54.543Z,118.77
2019-02-02T19:40:23.442Z,119.17
2019-02-02T19:42:53.015Z,126.70
2019-02-02T19:45:23.496Z,116.10
2019-02-02T19:47:52.360Z,122.13
2019-02-02T19:50:23.771Z,114.67
2019-02-02T19:52:52.958Z,127.37
2019-02-02T19:55:22.463Z,123.97
2019-02-02T19:57:52.216Z,122.97
2019-02-02T20:00:23.256Z,121.90
2019-02-02T20:02:52.612Z,118.50
2019-02-02T20:05:28.754Z,119.87
2019-02-02T20:07:52.640Z,111.63
2019-02-02T20:10:21.556Z,120.80
2019-02-02T20:12:50.779Z,118.23
2019-02-02T20:15:21.976Z,127.53
2019-02-02T20:17:50.868Z,113.03
2019-02-02T20:20:21.719Z,125.67
2019-02-02T20:22:51.256Z,132.00
2019-02-02T20:25:20.339Z,126.63
2019-02-02T20:27:49.553Z,121.93
2019-02-02T20:30:23.359Z,135.00
2019-02-02T20:32:52.480Z,134.63
2019-02-02T20:35:21.344Z,129.23
2019-02-02T20:37:50.294Z,134.53
2019-02-02T20:40:20.737Z,129.87
2019-02-02T20:42:49.835Z,140.53
2019-02-02T20:45:20.980Z,137.87
2019-02-02T20:47:50.111Z,134.30
2019-02-02T20:50:19.445Z,135.53
2019-02-02T20:52:48.382Z,131.13
2019-02-02T20:55:19.752Z,137.97
2019-02-02T20:57:49.379Z,131.63
2019-02-02T21:00:20.439Z,134.37
2019-02-02T21:02:49.744Z,139.57
2019-02-02T21:05:18.737Z,134.27
2019-02-02T21:07:47.564Z,126.13
2019-02-02T21:10:18.196Z,125.17
2019-02-02T21:12:47.441Z,123.80
2019-02-02T21:15:16.650Z,125.53
2019-02-02T21:17:45.928Z,121.97
2019-02-02T21:20:17.308Z,121.93
2019-02-02T21:22:46.332Z,134.27
2019-02-02T21:25:15.580Z,130.47
2019-02-02T21:27:44.884Z,119.67
2019-02-02T21:30:22.003Z,124.03
2019-02-02T21:32:51.375Z,123.30
2019-02-02T21:35:21.155Z,126.83
2019-02-02T21:37:50.076Z,135.53
2019-02-02T21:40:20.943Z,135.33
2019-02-02T21:42:50.297Z,129.20
2019-02-02T21:45:19.594Z,134.90
2019-02-02T21:47:48.540Z,128.37
2019-02-02T21:50:19.362Z,135.57
2019-02-02T21:52:48.360Z,118.90
2019-02-02T21:55:19.380Z,127.60
2019-02-02T21:57:48.220Z,130.63
